Time;durP1;ratioP1;P1;durP2;ratioP2;P2;SDS_P1;SDS_P2;PMS_P1;PMS_P2;Temp;Humidity;BMP_temperature;BMP_pressure;BME280_temperature;BME280_humidity;BME280_pressure;Samples;Min_cycle;Max_cycle;Signal;HPM_P1;HPM_P2
2023/01/28 00:00:54;;;;;;;39.10;21.80;;;;;;;1.41;86.25;99717.30;108042;1306;22267;-40
2023/01/28 00:03:20;;;;;;;42.40;22.40;;;;;;;1.37;86.49;99715.80;108029;1299;22249;-40
2023/01/28 00:05:45;;;;;;;50.90;23.70;;;;;;;1.39;86.59;99716.46;108034;1307;22555;-40
2023/01/28 00:08:12;;;;;;;44.40;22.90;;;;;;;1.46;86.43;99718.13;108025;1306;22394;-41
2023/01/28 00:10:38;;;;;;;49.70;23.20;;;;;;;1.50;86.49;99719.63;108043;1307;23121;-41
2023/01/28 00:13:05;;;;;;;48.00;23.80;;;;;;;1.51;86.29;99719.79;108058;1307;22389;-40
2023/01/28 00:15:30;;;;;;;47.80;23.00;;;;;;;1.51;86.23;99718.92;108038;1307;22279;-40
2023/01/28 00:17:56;;;;;;;42.00;21.70;;;;;;;1.50;86.39;99721.54;108035;1306;22256;-41
2023/01/28 00:20:21;;;;;;;41.40;21.20;;;;;;;1.50;86.50;99723.07;108044;1307;22302;-40
2023/01/28 00:22:48;;;;;;;40.80;22.30;;;;;;;1.54;86.23;99725.10;107609;1306;22314;-41
2023/01/28 00:25:13;;;;;;;44.80;22.90;;;;;;;1.53;86.22;99726.15;108030;1306;23126;-40
2023/01/28 00:27:39;;;;;;;43.20;22.30;;;;;;;1.58;86.02;99725.92;108037;1307;22426;-39
2023/01/28 00:30:06;;;;;;;43.10;21.80;;;;;;;1.58;85.94;99726.96;108030;1306;22261;-40
2023/01/28 00:32:31;;;;;;;46.50;23.50;;;;;;;1.57;85.84;99730.77;108054;1307;22229;-39
2023/01/28 00:34:56;;;;;;;44.40;22.40;;;;;;;1.58;85.88;99729.21;108037;1307;22257;-41
2023/01/28 00:37:22;;;;;;;44.80;23.20;;;;;;;1.58;85.89;99726.80;108021;1307;22220;-40
2023/01/28 00:39:48;;;;;;;43.50;22.20;;;;;;;1.58;85.81;99727.66;108049;1306;22408;-40
2023/01/28 00:42:13;;;;;;;41.00;21.70;;;;;;;1.55;85.81;99726.48;108047;1307;22245;-41
2023/01/28 00:44:39;;;;;;;43.50;22.30;;;;;;;1.51;86.00;99724.96;108061;1307;22361;-40
2023/01/28 00:47:04;;;;;;;44.50;22.20;;;;;;;1.53;86.04;99729.43;108021;1307;22259;-40
2023/01/28 00:49:30;;;;;;;42.60;21.10;;;;;;;1.56;86.12;99730.09;108038;1307;22259;-40
2023/01/28 00:51:55;;;;;;;37.40;20.70;;;;;;;1.61;85.87;99731.41;108039;1307;22244;-40
2023/01/28 00:54:20;;;;;;;45.10;22.10;;;;;;;1.61;85.67;99730.73;108038;1306;22457;-40
2023/01/28 00:56:46;;;;;;;45.80;20.50;;;;;;;1.57;85.56;99728.54;108041;1306;22410;-40
2023/01/28 00:59:12;;;;;;;44.50;22.90;;;;;;;1.61;85.63;99730.21;108064;1307;22462;-40
2023/01/28 01:01:37;;;;;;;40.90;21.00;;;;;;;1.62;85.57;99728.30;108043;1307;22227;-40
2023/01/28 01:04:03;;;;;;;41.10;21.60;;;;;;;1.55;85.64;99730.80;108059;1307;22403;-40
2023/01/28 01:06:34;;;;;;;42.10;22.10;;;;;;;1.51;85.96;99727.56;108074;1307;22414;-40
2023/01/28 01:09:00;;;;;;;45.60;23.30;;;;;;;1.58;85.95;99729.20;108056;1306;23045;-41
2023/01/28 01:11:26;;;;;;;47.20;22.60;;;;;;;1.61;85.74;99730.23;108039;1307;22170;-41
2023/01/28 01:13:54;;;;;;;42.00;22.40;;;;;;;1.58;85.63;99727.48;108048;1307;22418;-41
2023/01/28 01:16:20;;;;;;;39.20;21.40;;;;;;;1.58;85.57;99728.69;108066;1307;22331;-40
2023/01/28 01:18:45;;;;;;;41.00;22.20;;;;;;;1.56;85.55;99727.85;108043;1306;22237;-41
2023/01/28 01:21:16;;;;;;;41.40;20.20;;;;;;;1.53;85.52;99728.58;108027;1307;22921;-41
2023/01/28 01:23:42;;;;;;;37.20;19.70;;;;;;;1.55;85.46;99730.29;108051;1307;22552;-41
2023/01/28 01:26:08;;;;;;;40.90;21.30;;;;;;;1.51;85.57;99729.11;108041;1306;22404;-41
2023/01/28 01:28:33;;;;;;;41.00;20.80;;;;;;;1.56;85.52;99726.45;108064;1307;22525;-40
2023/01/28 01:31:09;;;;;;;42.00;23.10;;;;;;;1.55;85.58;99727.17;108055;1307;22420;-41
2023/01/28 01:33:35;;;;;;;45.80;23.40;;;;;;;1.55;85.81;99730.64;108048;1307;22425;-41
2023/01/28 01:36:01;;;;;;;44.80;23.90;;;;;;;1.57;85.95;99732.50;108054;1307;22246;-41
2023/01/28 01:38:27;;;;;;;48.20;23.80;;;;;;;1.58;85.83;99735.09;108040;1307;22323;-40
2023/01/28 01:40:59;;;;;;;41.50;22.10;;;;;;;1.53;85.78;99734.11;108028;1307;22163;-40
2023/01/28 01:43:25;;;;;;;41.10;21.00;;;;;;;1.51;85.84;99733.08;108057;1307;23012;-40
2023/01/28 01:45:58;;;;;;;39.60;21.50;;;;;;;1.49;85.79;99733.62;108055;1307;22480;-45
2023/01/28 01:48:32;;;;;;;38.40;21.40;;;;;;;1.51;85.78;99734.82;108045;1307;23154;-40
2023/01/28 01:51:02;;;;;;;39.50;20.80;;;;;;;1.50;85.83;99734.48;108027;1307;22255;-40
2023/01/28 01:53:29;;;;;;;41.30;21.00;;;;;;;1.51;85.64;99735.70;108049;1307;22378;-41
2023/01/28 01:56:00;;;;;;;38.40;20.40;;;;;;;1.39;85.85;99735.98;108046;1306;22265;-42
2023/01/28 01:58:29;;;;;;;40.00;20.30;;;;;;;1.40;85.82;99738.58;108053;1307;22259;-41
2023/01/28 02:00:56;;;;;;;43.60;21.10;;;;;;;1.40;85.77;99738.39;108013;1307;22992;-41
2023/01/28 02:03:44;;;;;;;33.00;19.00;;;;;;;1.41;85.89;99737.18;108042;1306;22852;-41
2023/01/28 02:06:11;;;;;;;36.30;19.00;;;;;;;1.45;85.73;99738.34;108030;1307;22503;-40
2023/01/28 02:08:36;;;;;;;43.50;21.90;;;;;;;1.39;85.70;99735.48;108027;1307;22517;-40
2023/01/28 02:11:05;;;;;;;39.70;20.80;;;;;;;1.42;85.77;99738.38;108036;1307;22934;-41
2023/01/28 02:13:35;;;;;;;41.20;21.80;;;;;;;1.41;86.01;99737.70;108038;1307;23203;-40
2023/01/28 02:16:02;;;;;;;42.90;21.80;;;;;;;1.42;86.17;99735.45;108049;1307;22910;-41
2023/01/28 02:18:28;;;;;;;41.50;20.80;;;;;;;1.45;86.13;99732.81;107623;1307;22739;-41
2023/01/28 02:21:21;;;;;;;38.60;20.70;;;;;;;1.47;86.11;99733.14;108025;1307;22993;-41
2023/01/28 02:24:14;;;;;;;42.00;21.10;;;;;;;1.50;86.03;99733.09;108037;1307;22226;-41
2023/01/28 02:26:58;;;;;;;39.20;20.70;;;;;;;1.54;85.89;99737.04;108052;1307;23172;-41
2023/01/28 02:29:38;;;;;;;42.00;21.80;;;;;;;1.59;85.93;99737.15;108026;1306;22249;-41
2023/01/28 02:32:35;;;;;;;36.80;20.80;;;;;;;1.62;85.92;99736.94;108064;1307;22272;-41
2023/01/28 02:35:20;;;;;;;38.40;21.60;;;;;;;1.64;85.74;99737.27;108034;1306;23097;-40
2023/01/28 02:37:56;;;;;;;40.50;21.30;;;;;;;1.62;85.59;99736.42;108016;1306;22362;-40
2023/01/28 02:40:28;;;;;;;41.30;21.60;;;;;;;1.61;85.53;99739.02;108020;1307;22886;-40
2023/01/28 02:42:54;;;;;;;41.20;20.90;;;;;;;1.58;85.69;99740.97;108056;1306;22297;-40
2023/01/28 02:45:22;;;;;;;32.90;20.00;;;;;;;1.59;85.32;99738.89;108019;1307;22410;-41
2023/01/28 02:47:56;;;;;;;;;;;;;;;1.52;85.39;99735.49;108061;1306;22439;-39
2023/01/28 02:50:22;;;;;;;39.80;20.60;;;;;;;1.43;85.51;99737.50;108041;1307;22240;-40
2023/01/28 02:58:48;;;;;;;42.20;22.70;;;;;;;1.43;85.83;99740.27;106499;1302;545503;-38
2023/01/28 03:01:44;;;;;;;39.60;21.20;;;;;;;1.44;85.83;99744.73;107519;1311;22454;-39
2023/01/28 03:04:24;;;;;;;40.90;19.70;;;;;;;1.41;85.91;99746.00;107495;1311;22320;-39
2023/01/28 03:06:54;;;;;;;36.80;19.50;;;;;;;1.41;85.95;99747.21;107608;1311;22288;-39
2023/01/28 03:09:21;;;;;;;38.30;20.40;;;;;;;1.45;85.94;99750.77;107614;1311;22981;-40
2023/01/28 03:37:17;;;;;;;34.40;17.40;;;;;;;1.40;86.80;99743.92;107832;1308;22257;-41
2023/01/28 03:39:42;;;;;;;31.90;17.70;;;;;;;1.32;87.60;99741.24;107791;1308;22413;-41
2023/01/28 03:42:11;;;;;;;33.10;16.90;;;;;;;1.18;88.46;99743.11;107807;1308;23001;-41
2023/01/28 03:44:51;;;;;;;31.50;15.70;;;;;;;1.28;88.08;99740.24;107813;1308;22255;-41
2023/01/28 03:47:22;;;;;;;29.30;16.10;;;;;;;1.34;87.64;99740.54;107811;1308;23030;-41
2023/01/28 03:49:50;;;;;;;27.90;15.10;;;;;;;1.37;87.63;99740.15;107828;1308;23045;-41
2023/01/28 03:52:18;;;;;;;30.40;16.00;;;;;;;1.41;87.45;99743.91;107826;1308;22489;-41
2023/01/28 03:54:47;;;;;;;25.90;15.30;;;;;;;1.42;87.66;99742.88;107657;1308;23010;-41
2023/01/28 03:57:17;;;;;;;32.20;16.70;;;;;;;1.38;88.00;99744.47;107822;1308;22422;-41
2023/01/28 03:59:42;;;;;;;29.30;16.00;;;;;;;1.38;88.13;99746.20;107847;1308;22270;-41
2023/01/28 04:02:09;;;;;;;28.70;14.70;;;;;;;1.45;87.30;99744.21;107819;1308;22419;-40
2023/01/28 04:04:37;;;;;;;30.90;15.70;;;;;;;1.40;87.54;99743.76;107858;1308;22271;-41
2023/01/28 04:07:02;;;;;;;;;;;;;;;1.43;87.36;99743.38;107834;1308;22429;-41
2023/01/28 04:09:28;;;;;;;32.00;15.50;;;;;;;1.42;87.69;99742.70;107803;1308;22254;-41
2023/01/28 04:11:53;;;;;;;26.80;15.30;;;;;;;1.38;87.75;99744.64;107796;1308;22273;-40
2023/01/28 04:14:18;;;;;;;31.10;16.20;;;;;;;1.42;87.99;99744.94;107814;1308;22505;-41
2023/01/28 04:16:44;;;;;;;28.30;15.20;;;;;;;1.43;88.22;99742.16;107797;1308;22981;-41
2023/01/28 04:19:11;;;;;;;26.90;15.00;;;;;;;1.53;88.23;99745.16;107812;1308;22307;-41
2023/01/28 04:21:37;;;;;;;25.10;13.70;;;;;;;1.53;87.69;99747.41;107835;1308;22305;-40
2023/01/28 04:24:03;;;;;;;24.30;13.20;;;;;;;1.48;87.78;99746.23;107807;1308;22304;-40
2023/01/28 04:26:28;;;;;;;34.80;18.80;;;;;;;1.49;87.94;99747.29;107848;1298;22423;-43
2023/01/28 04:28:53;;;;;;;26.60;13.90;;;;;;;1.49;87.72;99747.27;107890;1308;22464;-40
2023/01/28 04:31:19;;;;;;;22.90;12.90;;;;;;;1.42;88.46;99747.88;107848;1308;22239;-40
2023/01/28 04:33:44;;;;;;;23.60;13.20;;;;;;;1.44;88.32;99746.65;107882;1308;22264;-40
2023/01/28 04:36:09;;;;;;;25.60;14.80;;;;;;;1.45;88.17;99747.50;107880;1308;22972;-40
2023/01/28 04:38:35;;;;;;;31.70;15.40;;;;;;;1.43;88.02;99751.66;107877;1308;22260;-41
2023/01/28 04:41:00;;;;;;;30.50;14.90;;;;;;;1.39;88.16;99751.89;108027;1307;23108;-41
2023/01/28 04:43:26;;;;;;;34.00;15.50;;;;;;;1.34;88.58;99754.01;108021;1307;22529;-40
2023/01/28 04:45:51;;;;;;;35.40;17.10;;;;;;;1.33;89.23;99757.65;108033;1307;22239;-41
2023/01/28 04:48:16;;;;;;;31.10;16.50;;;;;;;1.38;88.75;99759.84;108015;1307;22246;-41
2023/01/28 04:50:42;;;;;;;30.80;15.60;;;;;;;1.33;89.11;99761.80;108039;1307;22215;-40
2023/01/28 04:53:09;;;;;;;36.70;16.20;;;;;;;1.32;89.68;99753.52;108011;1307;22413;-41
2023/01/28 04:55:34;;;;;;;31.70;16.10;;;;;;;1.34;89.93;99754.88;108030;1307;22243;-41
2023/01/28 04:58:00;;;;;;;30.80;16.00;;;;;;;1.39;89.63;99760.18;108002;1307;22405;-40
2023/01/28 05:00:25;;;;;;;25.30;14.20;;;;;;;1.39;89.47;99759.33;108045;1307;22258;-41
2023/01/28 05:02:50;;;;;;;29.80;14.40;;;;;;;1.19;89.80;99764.68;108013;1307;23153;-40
2023/01/28 05:05:16;;;;;;;26.00;14.00;;;;;;;1.23;90.02;99765.35;108029;1307;22212;-41
2023/01/28 05:07:41;;;;;;;29.80;14.90;;;;;;;1.27;89.86;99766.34;108006;1307;24256;-40
2023/01/28 05:10:07;;;;;;;28.50;13.60;;;;;;;1.23;90.18;99766.72;108025;1307;22454;-40
2023/01/28 05:12:33;;;;;;;27.40;13.90;;;;;;;1.26;89.96;99771.02;108051;1307;22412;-40
2023/01/28 05:15:02;;;;;;;26.70;13.70;;;;;;;1.27;89.50;99772.90;108016;1307;22295;-40
2023/01/28 05:17:28;;;;;;;30.50;14.40;;;;;;;1.26;89.38;99774.98;108015;1307;22404;-40
2023/01/28 05:19:53;;;;;;;28.50;13.30;;;;;;;1.25;89.83;99772.92;108016;1307;22223;-40
2023/01/28 05:22:18;;;;;;;26.40;13.20;;;;;;;1.24;89.82;99777.09;108031;1307;23233;-40
2023/01/28 05:24:44;;;;;;;27.10;13.70;;;;;;;1.26;89.87;99779.99;108028;1307;22239;-41
2023/01/28 05:27:09;;;;;;;26.10;13.40;;;;;;;1.23;90.23;99781.40;108003;1307;22463;-41
2023/01/28 05:29:35;;;;;;;26.60;13.70;;;;;;;1.30;89.75;99781.69;107972;1307;22274;-41
2023/01/28 05:32:00;;;;;;;27.10;14.80;;;;;;;1.27;89.84;99784.99;107995;1307;22231;-40
2023/01/28 05:34:26;;;;;;;29.40;13.80;;;;;;;1.24;90.51;99784.51;108017;1307;22395;-40
2023/01/28 05:36:51;;;;;;;30.30;14.80;;;;;;;1.23;90.93;99786.42;108015;1307;22298;-41
2023/01/28 05:39:16;;;;;;;27.60;14.50;;;;;;;1.26;90.79;99786.91;108023;1307;22404;-41
2023/01/28 05:41:42;;;;;;;28.40;14.40;;;;;;;1.04;91.82;99788.83;107998;1307;22258;-40
2023/01/28 05:44:07;;;;;;;29.80;13.80;;;;;;;1.01;92.69;99788.52;108013;1307;22440;-41
2023/01/28 05:46:33;;;;;;;30.30;14.90;;;;;;;1.05;92.42;99784.15;108001;1307;23209;-42
2023/01/28 05:48:58;;;;;;;30.70;15.80;;;;;;;0.91;93.04;99785.13;108012;1307;22265;-40
2023/01/28 05:51:24;;;;;;;25.50;14.20;;;;;;;0.69;94.00;99791.86;107997;1307;22999;-40
2023/01/28 05:53:49;;;;;;;31.70;15.10;;;;;;;0.61;95.01;99793.98;108019;1307;23042;-41
2023/01/28 05:56:14;;;;;;;28.80;14.40;;;;;;;0.73;94.05;99797.68;107986;1307;22988;-41
2023/01/28 05:58:40;;;;;;;27.50;14.90;;;;;;;0.70;94.08;99796.50;108009;1307;24225;-42
2023/01/28 06:01:05;;;;;;;29.50;14.30;;;;;;;0.61;94.84;99792.09;108014;1307;22448;-39
2023/01/28 06:03:30;;;;;;;26.80;15.50;;;;;;;0.63;95.14;99795.70;108003;1307;22990;-39
2023/01/28 06:05:56;;;;;;;24.80;13.60;;;;;;;0.67;95.53;99795.33;107996;1307;22289;-39
2023/01/28 06:08:21;;;;;;;33.30;15.70;;;;;;;0.66;95.35;99797.07;108002;1307;22390;-41
2023/01/28 06:10:46;;;;;;;26.90;15.00;;;;;;;0.59;95.88;99799.52;108018;1307;24822;-41
2023/01/28 06:13:12;;;;;;;29.30;14.70;;;;;;;0.45;96.71;99803.91;108020;1307;22546;-39
2023/01/28 06:15:37;;;;;;;27.90;14.60;;;;;;;0.38;97.12;99806.02;108017;1307;22388;-39
2023/01/28 06:18:03;;;;;;;32.50;14.40;;;;;;;0.36;97.44;99807.42;108029;1307;22219;-39
2023/01/28 06:20:28;;;;;;;30.30;14.60;;;;;;;0.42;97.34;99804.11;108013;1307;22249;-39
2023/01/28 06:22:54;;;;;;;29.50;14.40;;;;;;;0.51;96.81;99804.58;108026;1307;22181;-41
2023/01/28 06:25:19;;;;;;;26.10;14.20;;;;;;;0.61;96.08;99805.38;108008;1307;22282;-41
2023/01/28 06:27:45;;;;;;;29.50;15.30;;;;;;;0.71;95.49;99807.55;107994;1307;22705;-40
2023/01/28 06:30:11;;;;;;;28.30;15.20;;;;;;;0.81;95.11;99809.91;108019;1307;23152;-39
2023/01/28 06:32:36;;;;;;;30.10;14.80;;;;;;;0.80;95.07;99809.91;108012;1307;22986;-40
2023/01/28 06:35:02;;;;;;;29.00;14.80;;;;;;;0.84;94.54;99811.77;108002;1307;22244;-39
2023/01/28 06:37:28;;;;;;;24.50;13.40;;;;;;;0.90;93.84;99816.21;108009;1301;22423;-38
2023/01/28 06:39:53;;;;;;;28.10;14.40;;;;;;;0.90;93.65;99824.16;108022;1307;22249;-39
2023/01/28 06:42:18;;;;;;;29.80;15.80;;;;;;;0.93;93.65;99822.25;108015;1307;22254;-40
2023/01/28 06:44:44;;;;;;;27.30;14.40;;;;;;;0.89;93.91;99825.02;107994;1307;22231;-40
2023/01/28 06:47:09;;;;;;;29.50;15.60;;;;;;;0.84;94.47;99827.32;108008;1307;22387;-39
2023/01/28 06:49:36;;;;;;;32.50;16.80;;;;;;;0.90;94.53;99829.69;108007;1307;22940;-40
2023/01/28 06:52:02;;;;;;;28.20;14.90;;;;;;;0.92;94.52;99831.40;108021;1307;22273;-39
2023/01/28 06:54:27;;;;;;;26.40;15.20;;;;;;;0.87;94.36;99830.05;108013;1307;22234;-40
2023/01/28 06:56:52;;;;;;;30.30;16.50;;;;;;;0.89;93.98;99836.61;107979;1307;22243;-40
2023/01/28 06:59:18;;;;;;;30.50;15.10;;;;;;;0.90;94.34;99836.07;108015;1307;22249;-40
2023/01/28 07:01:43;;;;;;;32.20;15.90;;;;;;;0.83;94.38;99841.48;108005;1307;22258;-40
2023/01/28 07:04:08;;;;;;;32.20;16.30;;;;;;;0.78;94.55;99838.92;108010;1307;22397;-40
2023/01/28 07:06:34;;;;;;;32.90;17.30;;;;;;;0.73;95.20;99844.47;107993;1307;22401;-40
2023/01/28 07:08:59;;;;;;;31.60;15.00;;;;;;;0.68;95.45;99842.09;108014;1307;22443;-41
2023/01/28 07:11:24;;;;;;;30.90;17.00;;;;;;;0.76;95.21;99846.70;107985;1307;22424;-40
2023/01/28 07:13:50;;;;;;;28.40;15.50;;;;;;;0.80;95.34;99850.48;107997;1307;22323;-40
2023/01/28 07:16:16;;;;;;;27.00;14.50;;;;;;;0.60;95.87;99851.64;108008;1307;22299;-40
2023/01/28 07:18:41;;;;;;;35.50;16.40;;;;;;;0.55;96.05;99854.24;107996;1307;22602;-41
2023/01/28 07:21:06;;;;;;;32.90;16.90;;;;;;;0.51;96.32;99853.57;108003;1307;22237;-40
2023/01/28 07:23:32;;;;;;;35.00;17.40;;;;;;;0.40;96.89;99857.94;107979;1307;22367;-40
2023/01/28 07:26:01;;;;;;;33.20;17.00;;;;;;;0.41;97.55;99862.25;107979;1307;23074;-41
2023/01/28 07:28:27;;;;;;;36.20;16.80;;;;;;;0.45;97.45;99861.89;107998;1307;22292;-40
2023/01/28 07:30:52;;;;;;;28.80;16.10;;;;;;;0.39;97.20;99863.98;107993;1307;22982;-41
2023/01/28 07:33:18;;;;;;;37.10;18.20;;;;;;;0.32;97.35;99863.50;108007;1307;22330;-40
2023/01/28 07:35:44;;;;;;;30.00;16.50;;;;;;;0.30;97.69;99862.82;107985;1307;22394;-41
2023/01/28 07:38:09;;;;;;;37.00;16.70;;;;;;;0.40;97.59;99863.80;108021;1307;22394;-40
2023/01/28 07:40:35;;;;;;;32.70;15.90;;;;;;;0.43;97.59;99870.17;108010;1307;22989;-41
2023/01/28 07:43:00;;;;;;;34.20;17.80;;;;;;;0.53;97.08;99868.58;108027;1307;22258;-40
2023/01/28 07:45:29;;;;;;;40.10;22.60;;;;;;;0.49;97.00;99871.34;107995;1307;22463;-40
2023/01/28 07:48:02;;;;;;;44.30;22.40;;;;;;;0.49;97.39;99873.77;108032;1307;22229;-40
2023/01/28 07:50:30;;;;;;;35.80;18.20;;;;;;;0.58;97.60;99870.61;108046;1307;22390;-41
2023/01/28 07:52:56;;;;;;;45.20;23.20;;;;;;;0.52;97.30;99867.71;108007;1307;22403;-39
2023/01/28 07:55:22;;;;;;;39.60;19.00;;;;;;;0.47;97.40;99866.36;108031;1307;22223;-40
2023/01/28 07:57:49;;;;;;;38.10;19.40;;;;;;;0.53;97.25;99868.58;108022;1307;22239;-41
2023/01/28 08:00:15;;;;;;;37.70;18.40;;;;;;;0.42;97.04;99861.21;108006;1307;23536;-40
2023/01/28 08:02:43;;;;;;;38.20;19.50;;;;;;;0.33;97.12;99865.21;108030;1307;22243;-40
2023/01/28 08:05:09;;;;;;;36.50;17.40;;;;;;;0.42;97.25;99869.14;108028;1307;22313;-40
2023/01/28 08:07:34;;;;;;;43.30;21.60;;;;;;;0.45;97.17;99872.91;108009;1307;22616;-40
2023/01/28 08:09:59;;;;;;;40.20;20.20;;;;;;;0.55;96.34;99869.95;108037;1307;22302;-39
2023/01/28 08:12:25;;;;;;;51.10;24.90;;;;;;;0.49;96.54;99871.17;108023;1307;22379;-40
2023/01/28 08:14:50;;;;;;;37.90;19.70;;;;;;;0.56;96.81;99871.66;108014;1307;22396;-40
2023/01/28 08:17:15;;;;;;;44.30;23.50;;;;;;;0.70;96.43;99874.52;108007;1307;22209;-40
2023/01/28 08:19:41;;;;;;;37.70;19.40;;;;;;;0.70;96.04;99873.84;108011;1307;22713;-39
2023/01/28 08:22:06;;;;;;;34.70;17.60;;;;;;;0.75;96.19;99875.88;108019;1307;22276;-40
2023/01/28 08:24:31;;;;;;;47.40;22.10;;;;;;;0.84;95.48;99879.27;108024;1307;23037;-40
2023/01/28 08:26:57;;;;;;;39.70;19.90;;;;;;;0.79;95.11;99877.75;107993;1307;22305;-40
2023/01/28 08:29:22;;;;;;;37.50;18.10;;;;;;;0.74;95.15;99878.30;108017;1307;22242;-40
2023/01/28 08:31:47;;;;;;;33.60;16.60;;;;;;;0.70;95.22;99881.60;108003;1307;22220;-40
2023/01/28 08:34:13;;;;;;;31.60;17.30;;;;;;;0.67;95.03;99876.61;107997;1307;22233;-39
2023/01/28 08:36:38;;;;;;;31.20;17.80;;;;;;;0.56;95.46;99876.33;108005;1307;22491;-39
2023/01/28 08:39:04;;;;;;;32.10;18.10;;;;;;;0.61;95.65;99870.77;108008;1307;23567;-40
2023/01/28 08:41:30;;;;;;;38.50;18.90;;;;;;;0.63;95.60;99874.04;108023;1307;22319;-40
2023/01/28 08:43:55;;;;;;;51.50;20.30;;;;;;;0.68;95.47;99873.33;108007;1307;22224;-41
2023/01/28 08:46:21;;;;;;;29.80;16.10;;;;;;;0.66;95.57;99876.44;108011;1307;22415;-40
2023/01/28 08:48:49;;;;;;;42.40;18.90;;;;;;;0.64;95.53;99874.04;107979;1307;22236;-40
2023/01/28 08:51:14;;;;;;;39.30;19.20;;;;;;;0.74;95.51;99877.95;108003;1307;23093;-40
2023/01/28 08:53:39;;;;;;;56.90;26.30;;;;;;;0.74;95.21;99878.47;108016;1307;22268;-40
2023/01/28 08:56:05;;;;;;;40.40;21.40;;;;;;;0.67;95.20;99878.33;108016;1307;23100;-39
2023/01/28 08:58:31;;;;;;;38.60;18.30;;;;;;;0.60;95.45;99879.41;108009;1307;22212;-39
2023/01/28 09:00:56;;;;;;;47.00;22.00;;;;;;;0.59;95.53;99883.91;108011;1307;23213;-40
2023/01/28 09:03:21;;;;;;;42.20;21.90;;;;;;;0.63;95.50;99888.71;108022;1307;22221;-39
2023/01/28 09:05:49;;;;;;;52.20;26.40;;;;;;;0.67;95.08;99886.97;108000;1307;22684;-40
2023/01/28 09:08:15;;;;;;;63.90;25.60;;;;;;;0.62;95.05;99894.41;108018;1307;23150;-39
2023/01/28 09:10:41;;;;;;;50.70;20.80;;;;;;;0.68;94.87;99897.31;107999;1307;22385;-43
2023/01/28 09:13:09;;;;;;;39.30;18.50;;;;;;;0.75;94.60;99902.98;107993;1307;22223;-39
2023/01/28 09:15:35;;;;;;;48.00;20.60;;;;;;;0.79;94.27;99905.17;108042;1307;22359;-39
2023/01/28 09:18:01;;;;;;;34.60;16.90;;;;;;;0.77;94.22;99908.30;107749;1307;22222;-40
2023/01/28 09:20:26;;;;;;;31.20;18.00;;;;;;;0.79;94.11;99908.65;107995;1307;22542;-40
2023/01/28 09:22:52;;;;;;;34.50;18.80;;;;;;;0.85;93.86;99906.36;107995;1307;22407;-40
2023/01/28 09:25:18;;;;;;;41.20;20.10;;;;;;;0.85;93.66;99907.23;108014;1307;22238;-40
2023/01/28 09:27:43;;;;;;;44.90;19.50;;;;;;;0.85;93.41;99904.81;108021;1307;22261;-40
2023/01/28 09:30:09;;;;;;;36.90;16.70;;;;;;;0.83;93.40;99906.38;108000;1307;23073;-40
2023/01/28 09:32:35;;;;;;;31.60;16.50;;;;;;;0.85;93.53;99904.81;108015;1307;22380;-40
2023/01/28 09:35:01;;;;;;;38.70;17.20;;;;;;;0.78;93.25;99904.85;107990;1307;22247;-40
2023/01/28 09:37:27;;;;;;;30.20;16.60;;;;;;;0.77;93.50;99907.27;108001;1307;22228;-40
2023/01/28 09:39:52;;;;;;;25.20;15.70;;;;;;;0.80;93.41;99905.88;108007;1307;22259;-40
2023/01/28 09:42:23;;;;;;;26.20;15.70;;;;;;;0.83;93.13;99905.69;107974;1307;22234;-40
2023/01/28 09:44:53;;;;;;;48.40;20.70;;;;;;;0.73;93.08;99909.53;107988;1307;22286;-40
2023/01/28 09:47:47;;;;;;;25.90;16.30;;;;;;;0.79;93.48;99907.78;108013;1307;22242;-40
2023/01/28 09:50:25;;;;;;;30.00;15.60;;;;;;;0.81;93.39;99907.95;107998;1307;22348;-39
2023/01/28 09:52:54;;;;;;;50.20;19.50;;;;;;;0.82;93.52;99909.66;107979;1307;22257;-39
2023/01/28 09:55:34;;;;;;;47.40;21.10;;;;;;;0.88;93.39;99907.38;107709;1307;23101;-40
2023/01/28 09:58:00;;;;;;;37.00;17.70;;;;;;;0.94;93.53;99906.30;108000;1307;22482;-40
2023/01/28 10:00:41;;;;;;;53.70;32.80;;;;;;;1.01;93.33;99908.69;108004;1307;22246;-40
2023/01/28 10:03:35;;;;;;;28.20;18.20;;;;;;;0.95;92.69;99906.83;107994;1307;22400;-40
2023/01/28 10:06:14;;;;;;;45.70;22.30;;;;;;;0.92;92.91;99908.91;108038;1307;22978;-40
2023/01/28 10:09:01;;;;;;;40.90;18.30;;;;;;;0.99;93.17;99908.00;108004;1307;22260;-40
2023/01/28 10:11:26;;;;;;;;;;;;;;;0.92;92.95;99904.42;108008;1307;22430;-40
2023/01/28 10:14:33;;;;;;;27.60;15.80;;;;;;;0.94;93.29;99902.86;108003;1307;22253;-41
2023/01/28 10:17:24;;;;;;;30.50;16.30;;;;;;;0.97;92.97;99903.36;108006;1307;22306;-40
2023/01/28 10:19:59;;;;;;;39.80;19.10;;;;;;;0.93;92.54;99893.88;108017;1307;22237;-40
2023/01/28 10:22:38;;;;;;;34.70;15.80;;;;;;;0.95;92.47;99890.59;107738;1307;22225;-41
2023/01/28 10:25:16;;;;;;;21.70;13.70;;;;;;;0.87;92.49;99889.78;108014;1307;22415;-42
2023/01/28 10:27:55;;;;;;;31.00;17.80;;;;;;;0.87;92.93;99890.47;108011;1307;22236;-41
2023/01/28 10:30:27;;;;;;;24.30;16.00;;;;;;;0.86;92.60;99889.79;108006;1307;22888;-41
2023/01/28 10:32:58;;;;;;;25.90;15.70;;;;;;;0.90;92.68;99887.53;108011;1307;23126;-41
2023/01/28 10:35:24;;;;;;;24.20;15.20;;;;;;;1.00;92.56;99881.92;108015;1307;22628;-41
2023/01/28 10:37:56;;;;;;;27.00;16.00;;;;;;;1.01;92.49;99883.30;108008;1307;22380;-40
2023/01/28 10:40:21;;;;;;;29.70;16.70;;;;;;;1.01;92.45;99885.05;107995;1307;22651;-41
2023/01/28 10:42:47;;;;;;;31.50;21.10;;;;;;;0.98;92.60;99884.53;107992;1307;22268;-41
2023/01/28 10:45:15;;;;;;;19.60;13.00;;;;;;;1.03;92.55;99881.40;108001;1307;23124;-41
2023/01/28 10:47:47;;;;;;;23.30;14.90;;;;;;;0.96;92.14;99886.96;108043;1307;22224;-41
2023/01/28 10:50:17;;;;;;;24.90;14.60;;;;;;;0.80;91.89;99883.95;108031;1307;22273;-41
2023/01/28 10:53:03;;;;;;;23.60;14.50;;;;;;;0.84;92.11;99882.89;108021;1307;22240;-41
2023/01/28 10:55:54;;;;;;;21.40;13.40;;;;;;;0.84;92.21;99881.87;108043;1307;22246;-41
2023/01/28 10:58:23;;;;;;;19.90;12.00;;;;;;;0.91;92.32;99883.03;108003;1307;22504;-41
2023/01/28 11:01:05;;;;;;;19.60;11.90;;;;;;;0.87;92.09;99882.20;107998;1307;22315;-44
2023/01/28 11:03:31;;;;;;;21.80;12.10;;;;;;;0.95;91.84;99882.82;108001;1307;22231;-41
2023/01/28 11:05:57;;;;;;;19.20;11.70;;;;;;;1.00;91.52;99878.30;108013;1307;22224;-41
2023/01/28 11:08:26;;;;;;;21.50;13.80;;;;;;;0.87;91.11;99873.73;107984;1307;22265;-41
2023/01/28 11:10:52;;;;;;;19.80;12.50;;;;;;;0.82;91.08;99872.73;108006;1307;22419;-41
2023/01/28 11:13:27;;;;;;;21.10;13.70;;;;;;;0.91;91.16;99873.88;108020;1307;22397;-41
2023/01/28 11:16:13;;;;;;;21.80;11.60;;;;;;;0.85;90.83;99877.19;107976;1307;22405;-41
2023/01/28 11:18:45;;;;;;;20.20;12.80;;;;;;;0.81;90.78;99879.30;108017;1307;22399;-41
2023/01/28 11:21:20;;;;;;;20.10;12.50;;;;;;;0.85;90.84;99879.44;108008;1307;23030;-42
2023/01/28 11:23:52;;;;;;;24.10;14.40;;;;;;;0.91;90.77;99877.16;108026;1307;22319;-41
2023/01/28 11:26:21;;;;;;;26.70;15.30;;;;;;;0.89;90.71;99873.54;108012;1307;22343;-40
2023/01/28 11:28:47;;;;;;;44.20;20.90;;;;;;;0.83;90.89;99869.44;108023;1307;23029;-40
2023/01/28 11:31:18;;;;;;;37.90;18.80;;;;;;;0.90;90.98;99867.66;108007;1307;22225;-41
2023/01/28 11:33:49;;;;;;;36.00;19.10;;;;;;;0.96;90.93;99865.20;108004;1307;22406;-41
2023/01/28 11:36:19;;;;;;;28.70;17.20;;;;;;;0.95;90.54;99864.36;108015;1307;22240;-41
2023/01/28 11:38:56;;;;;;;23.50;14.60;;;;;;;1.02;90.47;99858.60;108036;1307;22377;-40
2023/01/28 11:41:31;;;;;;;26.60;15.20;;;;;;;1.06;90.34;99859.43;108021;1307;22390;-43
2023/01/28 11:44:13;;;;;;;24.40;15.00;;;;;;;1.01;90.13;99861.02;108013;1308;22213;-41
2023/01/28 11:47:00;;;;;;;26.40;15.60;;;;;;;0.94;90.38;99860.91;108007;1307;22248;-41
2023/01/28 11:49:27;;;;;;;30.80;17.60;;;;;;;0.92;90.71;99861.45;108001;1307;22259;-41
2023/01/28 11:52:31;;;;;;;26.70;17.20;;;;;;;0.92;91.01;99860.74;108009;1307;22528;-40
2023/01/28 11:55:14;;;;;;;25.20;16.50;;;;;;;0.91;90.80;99859.73;107109;1316;22260;-40